sensor_id;sensor_type;location;lat;lon;timestamp;P1;durP1;ratioP1;P2;durP2;ratioP2
18947;SDS011;9607;51.600;7.558;2023-03-17T00:00:22;0.90;;;0.90;;
18947;SDS011;9607;51.600;7.558;2023-03-17T00:02:49;0.73;;;0.73;;
18947;SDS011;9607;51.600;7.558;2023-03-17T00:05:17;2.00;;;1.20;;
18947;SDS011;9607;51.600;7.558;2023-03-17T00:07:47;1.38;;;0.82;;
18947;SDS011;9607;51.600;7.558;2023-03-17T00:10:16;1.58;;;1.20;;
18947;SDS011;9607;51.600;7.558;2023-03-17T00:12:46;1.80;;;1.00;;
18947;SDS011;9607;51.600;7.558;2023-03-17T00:15:14;0.80;;;0.80;;
18947;SDS011;9607;51.600;7.558;2023-03-17T00:17:43;2.03;;;1.20;;
18947;SDS011;9607;51.600;7.558;2023-03-17T00:22:55;1.25;;;0.88;;
18947;SDS011;9607;51.600;7.558;2023-03-17T00:25:24;1.98;;;1.00;;
18947;SDS011;9607;51.600;7.558;2023-03-17T00:27:53;3.63;;;1.27;;
18947;SDS011;9607;51.600;7.558;2023-03-17T00:30:21;1.58;;;1.20;;
18947;SDS011;9607;51.600;7.558;2023-03-17T00:32:51;1.20;;;1.10;;
18947;SDS011;9607;51.600;7.558;2023-03-17T00:35:21;1.45;;;0.93;;
18947;SDS011;9607;51.600;7.558;2023-03-17T00:37:50;1.73;;;1.25;;
18947;SDS011;9607;51.600;7.558;2023-03-17T00:40:20;1.45;;;1.10;;
18947;SDS011;9607;51.600;7.558;2023-03-17T00:42:49;1.60;;;0.80;;
18947;SDS011;9607;51.600;7.558;2023-03-17T00:45:17;0.93;;;0.93;;
18947;SDS011;9607;51.600;7.558;2023-03-17T00:47:45;1.10;;;1.00;;
18947;SDS011;9607;51.600;7.558;2023-03-17T00:50:14;0.80;;;0.80;;
18947;SDS011;9607;51.600;7.558;2023-03-17T00:52:43;1.08;;;0.95;;
18947;SDS011;9607;51.600;7.558;2023-03-17T00:55:10;1.38;;;1.00;;
18947;SDS011;9607;51.600;7.558;2023-03-17T00:57:38;0.82;;;0.82;;
18947;SDS011;9607;51.600;7.558;2023-03-17T01:00:06;0.80;;;0.70;;
18947;SDS011;9607;51.600;7.558;2023-03-17T01:02:44;1.02;;;0.90;;
18947;SDS011;9607;51.600;7.558;2023-03-17T01:05:13;0.80;;;0.80;;
18947;SDS011;9607;51.600;7.558;2023-03-17T01:07:41;1.25;;;0.70;;
18947;SDS011;9607;51.600;7.558;2023-03-17T01:10:14;0.90;;;0.80;;
18947;SDS011;9607;51.600;7.558;2023-03-17T01:12:43;1.00;;;0.90;;
18947;SDS011;9607;51.600;7.558;2023-03-17T01:15:10;1.60;;;1.13;;
18947;SDS011;9607;51.600;7.558;2023-03-17T01:17:38;1.17;;;0.80;;
18947;SDS011;9607;51.600;7.558;2023-03-17T01:20:06;0.65;;;0.65;;
18947;SDS011;9607;51.600;7.558;2023-03-17T01:22:37;1.10;;;1.00;;
18947;SDS011;9607;51.600;7.558;2023-03-17T01:25:04;1.13;;;1.02;;
18947;SDS011;9607;51.600;7.558;2023-03-17T01:27:32;1.75;;;1.00;;
18947;SDS011;9607;51.600;7.558;2023-03-17T01:30:00;0.90;;;0.90;;
18947;SDS011;9607;51.600;7.558;2023-03-17T01:32:28;1.35;;;0.90;;
18947;SDS011;9607;51.600;7.558;2023-03-17T01:34:54;0.95;;;0.88;;
18947;SDS011;9607;51.600;7.558;2023-03-17T01:37:24;1.35;;;1.25;;
18947;SDS011;9607;51.600;7.558;2023-03-17T01:39:54;2.90;;;1.30;;
18947;SDS011;9607;51.600;7.558;2023-03-17T01:42:20;1.42;;;1.20;;
18947;SDS011;9607;51.600;7.558;2023-03-17T01:44:58;1.65;;;0.93;;
18947;SDS011;9607;51.600;7.558;2023-03-17T01:47:26;2.13;;;0.88;;
18947;SDS011;9607;51.600;7.558;2023-03-17T01:49:54;1.58;;;1.00;;
18947;SDS011;9607;51.600;7.558;2023-03-17T01:52:22;0.75;;;0.75;;
18947;SDS011;9607;51.600;7.558;2023-03-17T01:54:51;0.73;;;0.73;;
18947;SDS011;9607;51.600;7.558;2023-03-17T01:57:23;0.80;;;0.80;;
18947;SDS011;9607;51.600;7.558;2023-03-17T01:59:54;0.80;;;0.80;;
18947;SDS011;9607;51.600;7.558;2023-03-17T02:02:27;0.70;;;0.70;;
18947;SDS011;9607;51.600;7.558;2023-03-17T02:04:55;0.60;;;0.60;;
18947;SDS011;9607;51.600;7.558;2023-03-17T02:07:23;0.75;;;0.63;;
18947;SDS011;9607;51.600;7.558;2023-03-17T02:09:52;0.85;;;0.75;;
18947;SDS011;9607;51.600;7.558;2023-03-17T02:12:22;0.77;;;0.65;;
18947;SDS011;9607;51.600;7.558;2023-03-17T02:14:51;0.60;;;0.60;;
18947;SDS011;9607;51.600;7.558;2023-03-17T02:17:18;1.33;;;0.75;;
18947;SDS011;9607;51.600;7.558;2023-03-17T02:19:46;0.90;;;0.77;;
18947;SDS011;9607;51.600;7.558;2023-03-17T02:22:14;1.10;;;0.85;;
18947;SDS011;9607;51.600;7.558;2023-03-17T02:24:43;1.08;;;0.85;;
18947;SDS011;9607;51.600;7.558;2023-03-17T02:27:15;0.82;;;0.80;;
18947;SDS011;9607;51.600;7.558;2023-03-17T02:29:43;0.77;;;0.77;;
18947;SDS011;9607;51.600;7.558;2023-03-17T02:32:11;0.65;;;0.65;;
18947;SDS011;9607;51.600;7.558;2023-03-17T02:34:38;0.80;;;0.70;;
18947;SDS011;9607;51.600;7.558;2023-03-17T02:37:05;0.77;;;0.73;;
18947;SDS011;9607;51.600;7.558;2023-03-17T02:39:34;0.90;;;0.80;;
18947;SDS011;9607;51.600;7.558;2023-03-17T02:42:01;0.82;;;0.82;;
18947;SDS011;9607;51.600;7.558;2023-03-17T02:44:29;0.60;;;0.60;;
18947;SDS011;9607;51.600;7.558;2023-03-17T02:46:57;1.10;;;0.85;;
18947;SDS011;9607;51.600;7.558;2023-03-17T02:49:24;1.17;;;1.08;;
18947;SDS011;9607;51.600;7.558;2023-03-17T02:51:53;1.10;;;0.90;;
18947;SDS011;9607;51.600;7.558;2023-03-17T02:54:20;1.50;;;1.13;;
18947;SDS011;9607;51.600;7.558;2023-03-17T02:56:48;1.20;;;1.10;;
18947;SDS011;9607;51.600;7.558;2023-03-17T02:59:15;2.42;;;1.15;;
18947;SDS011;9607;51.600;7.558;2023-03-17T03:01:41;1.17;;;0.80;;
18947;SDS011;9607;51.600;7.558;2023-03-17T03:04:08;0.80;;;0.80;;
18947;SDS011;9607;51.600;7.558;2023-03-17T03:06:35;1.42;;;1.00;;
18947;SDS011;9607;51.600;7.558;2023-03-17T03:09:03;0.75;;;0.75;;
18947;SDS011;9607;51.600;7.558;2023-03-17T03:11:30;0.95;;;0.85;;
18947;SDS011;9607;51.600;7.558;2023-03-17T03:13:58;0.70;;;0.70;;
18947;SDS011;9607;51.600;7.558;2023-03-17T03:16:25;1.40;;;0.90;;
18947;SDS011;9607;51.600;7.558;2023-03-17T03:18:52;0.82;;;0.82;;
18947;SDS011;9607;51.600;7.558;2023-03-17T03:21:19;1.20;;;1.00;;
18947;SDS011;9607;51.600;7.558;2023-03-17T03:23:46;1.00;;;0.90;;
18947;SDS011;9607;51.600;7.558;2023-03-17T03:26:13;0.93;;;0.93;;
18947;SDS011;9607;51.600;7.558;2023-03-17T03:28:40;1.58;;;0.95;;
18947;SDS011;9607;51.600;7.558;2023-03-17T03:31:08;0.82;;;0.82;;
18947;SDS011;9607;51.600;7.558;2023-03-17T03:33:35;0.70;;;0.70;;
18947;SDS011;9607;51.600;7.558;2023-03-17T03:36:02;1.10;;;1.00;;
18947;SDS011;9607;51.600;7.558;2023-03-17T03:38:30;1.15;;;0.80;;
18947;SDS011;9607;51.600;7.558;2023-03-17T03:40:57;1.30;;;0.70;;
18947;SDS011;9607;51.600;7.558;2023-03-17T03:43:27;1.02;;;0.80;;
18947;SDS011;9607;51.600;7.558;2023-03-17T03:45:53;1.33;;;0.95;;
18947;SDS011;9607;51.600;7.558;2023-03-17T03:48:22;1.30;;;1.00;;
18947;SDS011;9607;51.600;7.558;2023-03-17T03:50:49;0.90;;;0.80;;
18947;SDS011;9607;51.600;7.558;2023-03-17T03:53:15;1.40;;;0.88;;
18947;SDS011;9607;51.600;7.558;2023-03-17T03:55:42;1.48;;;1.05;;
18947;SDS011;9607;51.600;7.558;2023-03-17T03:58:09;0.85;;;0.85;;
18947;SDS011;9607;51.600;7.558;2023-03-17T04:00:36;0.80;;;0.80;;
18947;SDS011;9607;51.600;7.558;2023-03-17T04:03:03;0.95;;;0.90;;
18947;SDS011;9607;51.600;7.558;2023-03-17T04:05:31;2.47;;;0.90;;
18947;SDS011;9607;51.600;7.558;2023-03-17T04:07:58;0.90;;;0.80;;
18947;SDS011;9607;51.600;7.558;2023-03-17T04:10:25;0.65;;;0.65;;
18947;SDS011;9607;51.600;7.558;2023-03-17T04:12:52;1.10;;;0.85;;
18947;SDS011;9607;51.600;7.558;2023-03-17T04:15:19;1.20;;;1.00;;
18947;SDS011;9607;51.600;7.558;2023-03-17T04:17:46;1.13;;;0.90;;
18947;SDS011;9607;51.600;7.558;2023-03-17T04:20:14;1.38;;;0.90;;
18947;SDS011;9607;51.600;7.558;2023-03-17T04:22:43;0.90;;;0.75;;
18947;SDS011;9607;51.600;7.558;2023-03-17T04:25:11;0.80;;;0.80;;
18947;SDS011;9607;51.600;7.558;2023-03-17T04:27:39;0.75;;;0.65;;
18947;SDS011;9607;51.600;7.558;2023-03-17T04:30:07;1.48;;;1.25;;
18947;SDS011;9607;51.600;7.558;2023-03-17T04:32:36;1.73;;;1.10;;
18947;SDS011;9607;51.600;7.558;2023-03-17T04:35:03;0.80;;;0.80;;
18947;SDS011;9607;51.600;7.558;2023-03-17T04:37:30;0.98;;;0.85;;
18947;SDS011;9607;51.600;7.558;2023-03-17T04:39:58;1.92;;;0.90;;
18947;SDS011;9607;51.600;7.558;2023-03-17T04:42:25;1.00;;;0.90;;
18947;SDS011;9607;51.600;7.558;2023-03-17T04:44:52;1.17;;;0.73;;
18947;SDS011;9607;51.600;7.558;2023-03-17T04:47:19;1.00;;;0.90;;
18947;SDS011;9607;51.600;7.558;2023-03-17T04:49:46;1.33;;;0.82;;
18947;SDS011;9607;51.600;7.558;2023-03-17T04:52:12;0.80;;;0.80;;
18947;SDS011;9607;51.600;7.558;2023-03-17T04:54:40;1.60;;;1.10;;
18947;SDS011;9607;51.600;7.558;2023-03-17T04:57:08;1.25;;;0.90;;
18947;SDS011;9607;51.600;7.558;2023-03-17T04:59:35;1.00;;;0.90;;
18947;SDS011;9607;51.600;7.558;2023-03-17T05:02:01;0.63;;;0.60;;
18947;SDS011;9607;51.600;7.558;2023-03-17T05:04:28;1.33;;;1.10;;
18947;SDS011;9607;51.600;7.558;2023-03-17T05:06:55;1.27;;;0.88;;
18947;SDS011;9607;51.600;7.558;2023-03-17T05:09:22;0.80;;;0.80;;
18947;SDS011;9607;51.600;7.558;2023-03-17T05:11:50;1.13;;;0.90;;
18947;SDS011;9607;51.600;7.558;2023-03-17T05:14:19;1.00;;;0.90;;
18947;SDS011;9607;51.600;7.558;2023-03-17T05:16:46;1.08;;;1.08;;
18947;SDS011;9607;51.600;7.558;2023-03-17T05:19:14;2.95;;;1.30;;
18947;SDS011;9607;51.600;7.558;2023-03-17T05:21:42;1.33;;;1.02;;
18947;SDS011;9607;51.600;7.558;2023-03-17T05:24:09;1.85;;;1.23;;
18947;SDS011;9607;51.600;7.558;2023-03-17T05:26:36;2.03;;;1.40;;
18947;SDS011;9607;51.600;7.558;2023-03-17T05:29:04;1.65;;;0.88;;
18947;SDS011;9607;51.600;7.558;2023-03-17T05:31:32;1.05;;;0.90;;
18947;SDS011;9607;51.600;7.558;2023-03-17T05:33:59;2.40;;;1.48;;
18947;SDS011;9607;51.600;7.558;2023-03-17T05:36:26;3.30;;;1.40;;
18947;SDS011;9607;51.600;7.558;2023-03-17T05:38:53;2.03;;;1.33;;
18947;SDS011;9607;51.600;7.558;2023-03-17T05:41:20;1.48;;;1.25;;
18947;SDS011;9607;51.600;7.558;2023-03-17T05:43:47;2.15;;;1.45;;
18947;SDS011;9607;51.600;7.558;2023-03-17T05:46:14;1.63;;;1.15;;
18947;SDS011;9607;51.600;7.558;2023-03-17T05:48:42;1.13;;;1.00;;
18947;SDS011;9607;51.600;7.558;2023-03-17T05:51:09;1.35;;;1.08;;
18947;SDS011;9607;51.600;7.558;2023-03-17T05:53:35;0.73;;;0.73;;
18947;SDS011;9607;51.600;7.558;2023-03-17T05:56:02;1.20;;;1.10;;
18947;SDS011;9607;51.600;7.558;2023-03-17T05:58:30;1.25;;;0.80;;
18947;SDS011;9607;51.600;7.558;2023-03-17T06:00:57;1.02;;;0.93;;
18947;SDS011;9607;51.600;7.558;2023-03-17T06:03:24;0.93;;;0.75;;
18947;SDS011;9607;51.600;7.558;2023-03-17T06:05:52;1.38;;;0.80;;
18947;SDS011;9607;51.600;7.558;2023-03-17T06:08:19;0.80;;;0.70;;
18947;SDS011;9607;51.600;7.558;2023-03-17T06:10:46;1.15;;;0.90;;
18947;SDS011;9607;51.600;7.558;2023-03-17T06:13:13;1.08;;;0.90;;
18947;SDS011;9607;51.600;7.558;2023-03-17T06:15:40;1.10;;;0.90;;
18947;SDS011;9607;51.600;7.558;2023-03-17T06:18:07;0.98;;;0.93;;
18947;SDS011;9607;51.600;7.558;2023-03-17T06:20:34;1.40;;;1.30;;
18947;SDS011;9607;51.600;7.558;2023-03-17T06:23:03;1.48;;;1.10;;
18947;SDS011;9607;51.600;7.558;2023-03-17T06:25:31;1.48;;;1.15;;
18947;SDS011;9607;51.600;7.558;2023-03-17T06:27:58;1.70;;;1.15;;
18947;SDS011;9607;51.600;7.558;2023-03-17T06:30:26;2.03;;;1.30;;
18947;SDS011;9607;51.600;7.558;2023-03-17T06:32:53;2.65;;;1.27;;
18947;SDS011;9607;51.600;7.558;2023-03-17T06:35:20;1.38;;;1.20;;
18947;SDS011;9607;51.600;7.558;2023-03-17T06:37:47;1.20;;;1.10;;
18947;SDS011;9607;51.600;7.558;2023-03-17T06:40:15;2.22;;;1.42;;
18947;SDS011;9607;51.600;7.558;2023-03-17T06:42:42;3.50;;;1.50;;
18947;SDS011;9607;51.600;7.558;2023-03-17T06:45:10;3.05;;;1.70;;
18947;SDS011;9607;51.600;7.558;2023-03-17T06:47:38;2.72;;;1.70;;
18947;SDS011;9607;51.600;7.558;2023-03-17T06:50:05;4.22;;;1.67;;
18947;SDS011;9607;51.600;7.558;2023-03-17T06:52:35;3.15;;;2.00;;
18947;SDS011;9607;51.600;7.558;2023-03-17T06:55:02;4.80;;;2.42;;
18947;SDS011;9607;51.600;7.558;2023-03-17T06:57:31;5.38;;;1.75;;
18947;SDS011;9607;51.600;7.558;2023-03-17T06:59:58;1.38;;;1.17;;
18947;SDS011;9607;51.600;7.558;2023-03-17T07:02:25;2.17;;;1.70;;
18947;SDS011;9607;51.600;7.558;2023-03-17T07:04:52;4.03;;;2.10;;
18947;SDS011;9607;51.600;7.558;2023-03-17T07:07:18;5.20;;;1.88;;
18947;SDS011;9607;51.600;7.558;2023-03-17T07:09:45;2.67;;;2.00;;
18947;SDS011;9607;51.600;7.558;2023-03-17T07:12:12;3.30;;;1.80;;
18947;SDS011;9607;51.600;7.558;2023-03-17T07:14:41;3.45;;;1.65;;
18947;SDS011;9607;51.600;7.558;2023-03-17T07:17:09;2.83;;;1.70;;
18947;SDS011;9607;51.600;7.558;2023-03-17T07:19:37;4.00;;;1.73;;
18947;SDS011;9607;51.600;7.558;2023-03-17T07:22:05;4.80;;;1.75;;
18947;SDS011;9607;51.600;7.558;2023-03-17T07:24:32;3.00;;;1.80;;
18947;SDS011;9607;51.600;7.558;2023-03-17T07:26:59;3.45;;;1.95;;
18947;SDS011;9607;51.600;7.558;2023-03-17T07:29:26;2.90;;;1.67;;
18947;SDS011;9607;51.600;7.558;2023-03-17T07:31:54;2.63;;;1.73;;
18947;SDS011;9607;51.600;7.558;2023-03-17T07:34:21;3.45;;;1.67;;
18947;SDS011;9607;51.600;7.558;2023-03-17T07:36:48;3.85;;;1.83;;
18947;SDS011;9607;51.600;7.558;2023-03-17T07:39:15;2.05;;;1.67;;
18947;SDS011;9607;51.600;7.558;2023-03-17T07:41:41;2.40;;;1.35;;
18947;SDS011;9607;51.600;7.558;2023-03-17T07:44:10;2.55;;;1.67;;
18947;SDS011;9607;51.600;7.558;2023-03-17T07:46:37;3.65;;;1.70;;
18947;SDS011;9607;51.600;7.558;2023-03-17T07:49:05;3.00;;;1.77;;
18947;SDS011;9607;51.600;7.558;2023-03-17T07:51:33;2.45;;;1.60;;
18947;SDS011;9607;51.600;7.558;2023-03-17T07:54:00;3.92;;;2.03;;
18947;SDS011;9607;51.600;7.558;2023-03-17T07:56:30;2.42;;;1.70;;
18947;SDS011;9607;51.600;7.558;2023-03-17T07:58:57;4.03;;;1.73;;
18947;SDS011;9607;51.600;7.558;2023-03-17T08:01:24;2.50;;;1.52;;
18947;SDS011;9607;51.600;7.558;2023-03-17T08:03:51;2.85;;;1.65;;
18947;SDS011;9607;51.600;7.558;2023-03-17T08:06:20;5.30;;;1.80;;
18947;SDS011;9607;51.600;7.558;2023-03-17T08:08:49;2.28;;;1.55;;
18947;SDS011;9607;51.600;7.558;2023-03-17T08:11:16;4.10;;;1.67;;
18947;SDS011;9607;51.600;7.558;2023-03-17T08:13:44;2.83;;;1.98;;
18947;SDS011;9607;51.600;7.558;2023-03-17T08:16:11;2.17;;;1.35;;
18947;SDS011;9607;51.600;7.558;2023-03-17T08:18:38;2.63;;;1.88;;
18947;SDS011;9607;51.600;7.558;2023-03-17T08:21:05;3.13;;;1.42;;
18947;SDS011;9607;51.600;7.558;2023-03-17T08:23:33;2.67;;;1.60;;
18947;SDS011;9607;51.600;7.558;2023-03-17T08:26:01;4.40;;;1.80;;
18947;SDS011;9607;51.600;7.558;2023-03-17T08:28:29;2.28;;;1.40;;
18947;SDS011;9607;51.600;7.558;2023-03-17T08:31:04;1.48;;;1.38;;
18947;SDS011;9607;51.600;7.558;2023-03-17T08:33:33;2.65;;;1.85;;
18947;SDS011;9607;51.600;7.558;2023-03-17T08:36:02;2.60;;;1.60;;
18947;SDS011;9607;51.600;7.558;2023-03-17T08:38:30;3.28;;;1.85;;
18947;SDS011;9607;51.600;7.558;2023-03-17T08:40:59;2.70;;;2.03;;
18947;SDS011;9607;51.600;7.558;2023-03-17T08:43:27;5.35;;;1.80;;
18947;SDS011;9607;51.600;7.558;2023-03-17T08:45:57;2.50;;;1.77;;
18947;SDS011;9607;51.600;7.558;2023-03-17T08:48:27;2.47;;;1.75;;
18947;SDS011;9607;51.600;7.558;2023-03-17T08:50:55;1.98;;;1.38;;
18947;SDS011;9607;51.600;7.558;2023-03-17T08:53:22;3.15;;;1.80;;
18947;SDS011;9607;51.600;7.558;2023-03-17T08:55:49;1.70;;;1.40;;
18947;SDS011;9607;51.600;7.558;2023-03-17T08:58:17;2.25;;;1.50;;
18947;SDS011;9607;51.600;7.558;2023-03-17T09:00:44;3.47;;;1.80;;
18947;SDS011;9607;51.600;7.558;2023-03-17T09:03:12;1.60;;;1.25;;
18947;SDS011;9607;51.600;7.558;2023-03-17T09:05:39;1.92;;;1.35;;
18947;SDS011;9607;51.600;7.558;2023-03-17T09:08:06;3.35;;;1.10;;
18947;SDS011;9607;51.600;7.558;2023-03-17T09:10:34;1.65;;;1.20;;
18947;SDS011;9607;51.600;7.558;2023-03-17T09:13:01;1.98;;;1.35;;
18947;SDS011;9607;51.600;7.558;2023-03-17T09:15:30;2.88;;;1.60;;
18947;SDS011;9607;51.600;7.558;2023-03-17T09:17:58;2.17;;;1.55;;
18947;SDS011;9607;51.600;7.558;2023-03-17T09:20:26;1.92;;;1.50;;
18947;SDS011;9607;51.600;7.558;2023-03-17T09:22:52;5.45;;;1.52;;
18947;SDS011;9607;51.600;7.558;2023-03-17T09:25:20;3.20;;;1.35;;
18947;SDS011;9607;51.600;7.558;2023-03-17T09:27:47;1.83;;;1.42;;
18947;SDS011;9607;51.600;7.558;2023-03-17T09:30:14;2.28;;;1.27;;
18947;SDS011;9607;51.600;7.558;2023-03-17T09:32:43;2.13;;;1.20;;
18947;SDS011;9607;51.600;7.558;2023-03-17T09:35:10;3.63;;;1.35;;
18947;SDS011;9607;51.600;7.558;2023-03-17T09:37:37;2.05;;;1.25;;
18947;SDS011;9607;51.600;7.558;2023-03-17T09:40:04;1.67;;;1.20;;
18947;SDS011;9607;51.600;7.558;2023-03-17T09:42:41;2.17;;;1.70;;
18947;SDS011;9607;51.600;7.558;2023-03-17T09:45:19;4.28;;;1.50;;
18947;SDS011;9607;51.600;7.558;2023-03-17T09:50:43;2.72;;;1.40;;
18947;SDS011;9607;51.600;7.558;2023-03-17T09:53:15;1.80;;;1.23;;
18947;SDS011;9607;51.600;7.558;2023-03-17T09:55:44;1.85;;;1.50;;
18947;SDS011;9607;51.600;7.558;2023-03-17T09:58:15;1.50;;;1.13;;
18947;SDS011;9607;51.600;7.558;2023-03-17T10:00:46;2.30;;;1.48;;
18947;SDS011;9607;51.600;7.558;2023-03-17T10:03:14;2.78;;;1.75;;
18947;SDS011;9607;51.600;7.558;2023-03-17T10:05:41;1.90;;;1.27;;
18947;SDS011;9607;51.600;7.558;2023-03-17T10:08:10;2.75;;;1.25;;
18947;SDS011;9607;51.600;7.558;2023-03-17T10:10:41;3.28;;;1.83;;
18947;SDS011;9607;51.600;7.558;2023-03-17T10:13:14;1.45;;;1.20;;
18947;SDS011;9607;51.600;7.558;2023-03-17T10:15:58;1.80;;;1.40;;
18947;SDS011;9607;51.600;7.558;2023-03-17T10:18:31;2.90;;;1.70;;
18947;SDS011;9607;51.600;7.558;2023-03-17T10:21:05;4.63;;;1.75;;
18947;SDS011;9607;51.600;7.558;2023-03-17T10:23:35;1.90;;;1.40;;
18947;SDS011;9607;51.600;7.558;2023-03-17T10:26:04;2.05;;;1.50;;
18947;SDS011;9607;51.600;7.558;2023-03-17T10:28:34;2.88;;;1.50;;
18947;SDS011;9607;51.600;7.558;2023-03-17T10:31:10;2.97;;;1.67;;
18947;SDS011;9607;51.600;7.558;2023-03-17T10:33:42;3.30;;;1.17;;
18947;SDS011;9607;51.600;7.558;2023-03-17T10:36:13;1.70;;;1.02;;
18947;SDS011;9607;51.600;7.558;2023-03-17T10:38:47;2.65;;;1.45;;
18947;SDS011;9607;51.600;7.558;2023-03-17T10:41:18;3.38;;;1.48;;
18947;SDS011;9607;51.600;7.558;2023-03-17T10:43:46;1.70;;;1.30;;
18947;SDS011;9607;51.600;7.558;2023-03-17T10:46:16;2.70;;;1.70;;
18947;SDS011;9607;51.600;7.558;2023-03-17T10:48:49;1.65;;;1.30;;
18947;SDS011;9607;51.600;7.558;2023-03-17T10:51:23;2.13;;;1.50;;
18947;SDS011;9607;51.600;7.558;2023-03-17T10:53:54;2.13;;;1.33;;
18947;SDS011;9607;51.600;7.558;2023-03-17T10:56:26;3.70;;;1.50;;
18947;SDS011;9607;51.600;7.558;2023-03-17T10:58:57;3.65;;;1.80;;
18947;SDS011;9607;51.600;7.558;2023-03-17T11:01:33;2.13;;;1.70;;
18947;SDS011;9607;51.600;7.558;2023-03-17T11:04:03;2.55;;;1.50;;
18947;SDS011;9607;51.600;7.558;2023-03-17T11:06:49;3.45;;;1.48;;
18947;SDS011;9607;51.600;7.558;2023-03-17T11:09:17;2.03;;;1.63;;
18947;SDS011;9607;51.600;7.558;2023-03-17T11:11:46;3.13;;;1.80;;
18947;SDS011;9607;51.600;7.558;2023-03-17T11:14:14;1.95;;;1.50;;
18947;SDS011;9607;51.600;7.558;2023-03-17T11:16:46;3.70;;;1.50;;
18947;SDS011;9607;51.600;7.558;2023-03-17T11:19:20;4.43;;;1.50;;
18947;SDS011;9607;51.600;7.558;2023-03-17T11:21:54;3.00;;;1.75;;
18947;SDS011;9607;51.600;7.558;2023-03-17T11:24:29;2.03;;;1.45;;
18947;SDS011;9607;51.600;7.558;2023-03-17T11:27:01;2.33;;;1.60;;
18947;SDS011;9607;51.600;7.558;2023-03-17T11:29:50;2.70;;;1.65;;
18947;SDS011;9607;51.600;7.558;2023-03-17T11:32:34;1.75;;;1.42;;
18947;SDS011;9607;51.600;7.558;2023-03-17T11:35:12;2.75;;;1.35;;
18947;SDS011;9607;51.600;7.558;2023-03-17T11:38:19;4.50;;;1.27;;
18947;SDS011;9607;51.600;7.558;2023-03-17T11:41:00;2.08;;;1.52;;
18947;SDS011;9607;51.600;7.558;2023-03-17T11:43:51;2.65;;;1.40;;
18947;SDS011;9607;51.600;7.558;2023-03-17T11:46:28;2.30;;;1.58;;
18947;SDS011;9607;51.600;7.558;2023-03-17T11:49:02;2.03;;;1.42;;
18947;SDS011;9607;51.600;7.558;2023-03-17T11:51:40;1.60;;;1.27;;
18947;SDS011;9607;51.600;7.558;2023-03-17T11:54:16;3.00;;;1.48;;
18947;SDS011;9607;51.600;7.558;2023-03-17T11:56:50;3.42;;;1.35;;
18947;SDS011;9607;51.600;7.558;2023-03-17T11:59:24;3.00;;;1.30;;
18947;SDS011;9607;51.600;7.558;2023-03-17T12:01:57;1.75;;;1.48;;
18947;SDS011;9607;51.600;7.558;2023-03-17T12:04:29;1.30;;;1.20;;
18947;SDS011;9607;51.600;7.558;2023-03-17T12:07:03;1.45;;;1.10;;
18947;SDS011;9607;51.600;7.558;2023-03-17T12:09:45;2.20;;;1.15;;
18947;SDS011;9607;51.600;7.558;2023-03-17T12:12:23;2.70;;;1.50;;
18947;SDS011;9607;51.600;7.558;2023-03-17T12:14:55;1.08;;;0.77;;
18947;SDS011;9607;51.600;7.558;2023-03-17T12:17:27;3.50;;;1.50;;
18947;SDS011;9607;51.600;7.558;2023-03-17T12:20:02;2.08;;;1.20;;
18947;SDS011;9607;51.600;7.558;2023-03-17T12:22:38;1.85;;;1.40;;
18947;SDS011;9607;51.600;7.558;2023-03-17T12:25:11;2.60;;;1.35;;
18947;SDS011;9607;51.600;7.558;2023-03-17T12:27:45;1.77;;;1.60;;
18947;SDS011;9607;51.600;7.558;2023-03-17T12:30:21;1.98;;;1.23;;
18947;SDS011;9607;51.600;7.558;2023-03-17T12:32:55;2.45;;;1.05;;
18947;SDS011;9607;51.600;7.558;2023-03-17T12:35:33;1.30;;;1.08;;
18947;SDS011;9607;51.600;7.558;2023-03-17T12:38:05;2.28;;;1.42;;
18947;SDS011;9607;51.600;7.558;2023-03-17T12:40:37;1.75;;;1.40;;
18947;SDS011;9607;51.600;7.558;2023-03-17T12:43:34;1.77;;;1.23;;
18947;SDS011;9607;51.600;7.558;2023-03-17T12:46:13;4.57;;;1.67;;
18947;SDS011;9607;51.600;7.558;2023-03-17T12:49:09;2.45;;;1.50;;
18947;SDS011;9607;51.600;7.558;2023-03-17T12:51:56;1.67;;;1.15;;
18947;SDS011;9607;51.600;7.558;2023-03-17T12:54:33;2.03;;;1.58;;
18947;SDS011;9607;51.600;7.558;2023-03-17T12:57:03;1.67;;;1.20;;
18947;SDS011;9607;51.600;7.558;2023-03-17T12:59:40;1.38;;;1.08;;
18947;SDS011;9607;51.600;7.558;2023-03-17T13:02:12;2.00;;;1.38;;
18947;SDS011;9607;51.600;7.558;2023-03-17T13:04:46;2.72;;;1.42;;
18947;SDS011;9607;51.600;7.558;2023-03-17T13:07:18;2.25;;;1.42;;
18947;SDS011;9607;51.600;7.558;2023-03-17T13:09:49;4.05;;;1.58;;
18947;SDS011;9607;51.600;7.558;2023-03-17T13:15:52;3.47;;;1.40;;
18947;SDS011;9607;51.600;7.558;2023-03-17T13:21:17;2.03;;;1.27;;
18947;SDS011;9607;51.600;7.558;2023-03-17T13:23:52;2.47;;;1.17;;
18947;SDS011;9607;51.600;7.558;2023-03-17T13:26:48;1.40;;;1.08;;
18947;SDS011;9607;51.600;7.558;2023-03-17T13:29:22;1.45;;;1.23;;
18947;SDS011;9607;51.600;7.558;2023-03-17T13:31:50;1.50;;;1.10;;
18947;SDS011;9607;51.600;7.558;2023-03-17T13:34:18;3.33;;;1.58;;
18947;SDS011;9607;51.600;7.558;2023-03-17T13:36:46;5.55;;;1.40;;
18947;SDS011;9607;51.600;7.558;2023-03-17T13:42:32;1.65;;;1.20;;
18947;SDS011;9607;51.600;7.558;2023-03-17T13:45:18;2.35;;;1.45;;
18947;SDS011;9607;51.600;7.558;2023-03-17T13:47:51;2.35;;;1.30;;
18947;SDS011;9607;51.600;7.558;2023-03-17T13:50:21;5.03;;;1.23;;
18947;SDS011;9607;51.600;7.558;2023-03-17T13:52:52;3.45;;;1.20;;
18947;SDS011;9607;51.600;7.558;2023-03-17T13:55:31;2.67;;;1.33;;
18947;SDS011;9607;51.600;7.558;2023-03-17T13:58:21;2.50;;;1.42;;
18947;SDS011;9607;51.600;7.558;2023-03-17T14:00:59;2.25;;;1.20;;
18947;SDS011;9607;51.600;7.558;2023-03-17T14:03:33;2.72;;;1.25;;
18947;SDS011;9607;51.600;7.558;2023-03-17T14:06:04;1.13;;;1.00;;
18947;SDS011;9607;51.600;7.558;2023-03-17T14:08:33;1.88;;;1.40;;
18947;SDS011;9607;51.600;7.558;2023-03-17T14:11:02;3.30;;;1.63;;
18947;SDS011;9607;51.600;7.558;2023-03-17T14:13:36;2.30;;;1.40;;
18947;SDS011;9607;51.600;7.558;2023-03-17T14:16:11;1.63;;;0.90;;
18947;SDS011;9607;51.600;7.558;2023-03-17T14:18:42;1.75;;;1.10;;
18947;SDS011;9607;51.600;7.558;2023-03-17T14:21:18;2.58;;;1.45;;
18947;SDS011;9607;51.600;7.558;2023-03-17T14:23:51;2.25;;;1.20;;
18947;SDS011;9607;51.600;7.558;2023-03-17T14:26:19;2.97;;;1.30;;
18947;SDS011;9607;51.600;7.558;2023-03-17T14:28:49;1.70;;;1.02;;
18947;SDS011;9607;51.600;7.558;2023-03-17T14:31:19;8.88;;;1.50;;
18947;SDS011;9607;51.600;7.558;2023-03-17T14:33:49;2.20;;;1.33;;
18947;SDS011;9607;51.600;7.558;2023-03-17T14:36:18;2.63;;;1.25;;
18947;SDS011;9607;51.600;7.558;2023-03-17T14:38:46;2.10;;;1.20;;
18947;SDS011;9607;51.600;7.558;2023-03-17T14:41:15;2.13;;;1.20;;
18947;SDS011;9607;51.600;7.558;2023-03-17T14:43:43;3.20;;;1.27;;
18947;SDS011;9607;51.600;7.558;2023-03-17T14:46:13;1.92;;;1.10;;
18947;SDS011;9607;51.600;7.558;2023-03-17T14:48:42;1.48;;;1.38;;
18947;SDS011;9607;51.600;7.558;2023-03-17T14:51:14;4.55;;;1.30;;
18947;SDS011;9607;51.600;7.558;2023-03-17T14:53:49;2.00;;;1.10;;
18947;SDS011;9607;51.600;7.558;2023-03-17T14:56:20;1.88;;;1.00;;
18947;SDS011;9607;51.600;7.558;2023-03-17T14:58:49;2.45;;;1.38;;
18947;SDS011;9607;51.600;7.558;2023-03-17T15:01:19;2.35;;;1.35;;
18947;SDS011;9607;51.600;7.558;2023-03-17T15:03:53;3.67;;;1.30;;
18947;SDS011;9607;51.600;7.558;2023-03-17T15:06:22;2.33;;;1.25;;
18947;SDS011;9607;51.600;7.558;2023-03-17T15:08:50;1.63;;;1.30;;
18947;SDS011;9607;51.600;7.558;2023-03-17T15:11:19;1.30;;;1.20;;
18947;SDS011;9607;51.600;7.558;2023-03-17T15:13:48;2.63;;;1.20;;
18947;SDS011;9607;51.600;7.558;2023-03-17T15:16:21;1.88;;;1.13;;
18947;SDS011;9607;51.600;7.558;2023-03-17T15:18:52;1.75;;;1.35;;
18947;SDS011;9607;51.600;7.558;2023-03-17T15:21:27;2.83;;;1.00;;
18947;SDS011;9607;51.600;7.558;2023-03-17T15:24:02;1.80;;;1.15;;
18947;SDS011;9607;51.600;7.558;2023-03-17T15:26:30;2.58;;;1.10;;
18947;SDS011;9607;51.600;7.558;2023-03-17T15:28:57;1.48;;;1.23;;
18947;SDS011;9607;51.600;7.558;2023-03-17T15:31:26;2.53;;;1.50;;